Portada
METAR-TAF:

METAR-TAF

Aeropuertos :

Tongatapu, Tonga

Aeropuerto Internacional Fua'amotu

latitud: 21-14S, longitud: 175-09W, altitud: 38 m

Observación

El informe se hizo hace 39 minutos, a las 23:00 UTC
Viento 5 kt del sur
Temperatura 24°C
Humedad 50%
Presión 1015 hPa
Visibilidad 10 km o más
Escasas nubes a una altura de 1900 ft
Cielo nuboso a una altura de 14000 ft

METAR: NFTF 202300Z 18005KT 9999 FEW019 BKN140 24/13 Q1015 RMK DRY AIR 50

Hora: 12:39 (23:39 UTC)

Pronóstico

El informe se hizo hace 6 horas y 38 minutos, a las 17:01 UTC
Pronóstico válido del 20 a las 18 UTC al 21 a las 18 UTC
Viento 5 kt del sur-sureste
Visibilidad 10 km o más
Escasas nubes a una altura de 1000 ft
Cielo nuboso a una altura de 10000 ft

TAF: NFTF 201701Z 2018/2118 15005KT 9999 FEW010 BKN100

Observaciones y pronósticos meteorológicos de más de 4000 aeropuertos (mensajes METAR y TAF).

Los puntos amarillos y rojos representan las estaciones disponibles.

Ponga el ratón en el punto deseado para ver el nombre de la estación.

Haga clic para ver las observaciones y los pronósticos meteorológicos.

Para cambiar el mapa : haga clic en los botones verdes con una cruz de color negro para hacer un zoom, en el botón verde con un guión para alejar o en las flechas verdes para mapas adyacentes.


METAR-TAF: